South Dartmouth, Massachusetts
Current Conditions -  °F | °C
As of 12:53 PM on Thursday 29 Jan 2015 (Local Time) from KEWB Reporting Station
Clear Clear  
Wind Chill: 33°   Ceiling: Unl
Heat Index: 33°   Visibility: 10mi
Dew Point: 17°   Wind: 0mph
Humidity: 52%   Direction: NA
Pressure: 30.23"   Gusts: NA
Location:  41.6°N, 70.94°W
Report Text: KEWB 291753Z 00000KT 10SM CLR 01/M08 A3023 RMK AO2 SLP236 T00061083 10006 21178 58027
Loading
Personal Weather Stations






























Interactive Weather Map New forecast layout! Learn more

10-Day Weather Forecast

Advertisements
Track Severe Weather on mobile